首页
METAR-TAF:

METAR-TAF

机场 :

朱諾, 阿拉斯加州, 美国

纬度: 58-21-17N, 经度: 134-34-34W, 海拔: 6米

当前天气观测

该预报发布于55分钟前的22:53 UTC
静风
温度 -1°C
湿度 100%
气压 995 hPa
能見度: 16.1公里
多云层高于8000英尺
多云层高于20000英尺

METAR: PAJN 182253Z 00000KT 10SM BKN080 BKN200 M01/M01 A2939 RMK AO2 SLP952 I1000 T10061006

时间: 14:48 (23:48 UTC)

预报

该预报发布于16分钟前的23:32 UTC
预报有效从19日的 00点(UTC)到 19日的 24点(UTC)
风速5节,风向多变
能見度: 10公里
多云层高于8000英尺
多云层高于20000英尺
从 19日的 0300点(UTC)
风速节,风向
能見度: 10公里
散云层高于25000英尺
从 19日的 1500点(UTC)
风速4节,风向多变
能見度: 10公里
多云层高于6000英尺
从 19日的 2300点(UTC)
风速节,风向
能見度: 10公里
多云层高于5000英尺

TAF: PAJN 182332Z 1900/1924 VRB05KT P6SM BKN080 BKN200 FM190300 00000KT P6SM SCT250 FM191500 VRB04KT P6SM BKN060 FM192300 00000KT P6SM BKN050

超过4000个机场的气象观测和天气预报(METAR&TAF报告)。

可查询的气象台以黄色和红色小点在地图上表示。

将鼠标移到小点上方,可查看气象台名称。

然后点击查看天气观测和预报。

如需切换地图:点击带黑十字的绿色按钮放大地图;点击带横线的绿色按钮缩小地图;或者点击绿色箭头查看邻近地区的地图。


METAR-TAF: